Flight Track Log - Related Links

Times and Time Zones

All times are in EDT time to prevent confusion due to time zone crossing. See the BJS339 flight status page for this flight to view local times or setup timezone preferences in your user account.

Time Position Orientation Groundspeed Altitude Reporting Facility
EDT Latitude Longitude Course Direction KTS MPH feet Rate Location/Type
Mon 01:38:09 PM 26.5156 -80.1531 350° North 272 313 6,000  Level Miami Center
Mon 01:39:11 PM 26.5781 -80.2011 325° Northwest 272 313 6,000  Level Miami Center
Mon 01:40:13 PM 26.6528 -80.2181 349° North 275 316 6,000  Level Miami Center
Mon 01:41:15 PM 26.7342 -80.2347 350° North 277 319 6,000  Level Miami Center
Mon 01:42:00 PM 26.7905 -80.1962 350° North  Level FlightAware Approximate
Mon 01:42:17 PM 26.8103 -80.2492 350° North 277 319 6,000  Level Miami Center
Mon 01:43:00 PM 26.8592 -80.2103 350° North  Level FlightAware Approximate
Mon 01:43:19 PM 26.8839 -80.2639 350° North 276 318 6,000  Level Miami Center
Mon 01:44:21 PM 26.9694 -80.2811 350° North 276 318 5,900 -823 Descending Miami Center
Mon 01:45:23 PM 27.0472 -80.2967 350° North 275 316 4,300 -927 Descending Miami Center
Mon 01:46:24 PM 27.1153 -80.3106 350° North 265 305 4,000 -146 Descending Miami Center
Mon 01:47:26 PM 27.1917 -80.3250 350° North 264 304 4,000  Level Miami Center
Mon 01:48:28 PM 27.2656 -80.3453 346° North 260 299 4,000  Level Miami Center
Mon 01:49:30 PM 27.3386 -80.3719 342° North 261 300 4,000  Level Miami Center
Mon 01:50:32 PM 27.4108 -80.3967 343° North 261 300 4,000 -435 Level Miami Center
Mon 01:51:34 PM 27.4836 -80.4219 343° North 261 300 3,100 -484 Descending Miami Center
Mon 01:52:36 PM 27.5486 -80.4439 343° North 258 297 3,000 -435 Descending Miami Center
Mon 01:53:38 PM 27.6142 -80.4661 343° North 240 276 2,200 -726 Descending Miami Center
Mon 01:54:40 PM 27.6628 -80.4881 338° Northwest 191 220 1,500 -823 Descending Miami Center
Mon 01:55:42 PM 27.6653 -80.4511 86° East 134 154 500 -968 Descending Miami Center

Login

Don't have an account? Register now (free) for customized features, flight alerts, and more!